Time;durP1;ratioP1;P1;durP2;ratioP2;P2;SDS_P1;SDS_P2;PMS_P1;PMS_P2;Temp;Humidity;BMP_temperature;BMP_pressure;BME280_temperature;BME280_humidity;BME280_pressure;Samples;Min_cycle;Max_cycle;Signal;HPM_P1;HPM_P2
2022/06/25 00:01:22;;;;;;;11.90;5.10;;;;;;;17.45;64.97;98590.95;4151022;85;22147;-85
2022/06/25 00:07:23;;;;;;;7.67;4.45;;;;;;;17.42;65.34;98594.55;4117358;85;22129;-85
2022/06/25 00:13:25;;;;;;;6.20;4.58;;;;;;;17.39;65.54;98591.86;4129964;84;20976;-86
2022/06/25 00:19:26;;;;;;;8.13;4.90;;;;;;;17.34;65.98;98591.77;4132435;85;21927;-85
2022/06/25 00:25:27;;;;;;;6.05;4.33;;;;;;;17.32;66.45;98598.32;4109489;85;21495;-84
2022/06/25 00:31:29;;;;;;;8.60;5.08;;;;;;;17.25;66.50;98601.26;4110979;85;21616;-85
2022/06/25 00:37:30;;;;;;;5.70;4.22;;;;;;;17.23;67.02;98595.99;4140068;85;21032;-83
2022/06/25 00:43:39;;;;;;;6.15;3.90;;;;;;;17.16;67.27;98596.30;4182182;84;21088;-85
2022/06/25 00:49:41;;;;;;;6.03;4.60;;;;;;;17.09;67.76;98595.67;4190264;83;20999;-86
2022/06/25 00:55:47;;;;;;;5.67;4.22;;;;;;;16.97;67.97;98590.20;4146792;85;21417;-85
2022/06/25 01:01:48;;;;;;;6.45;3.95;;;;;;;16.86;68.36;98589.64;4164492;85;21535;-85
2022/06/25 01:07:50;;;;;;;6.08;4.15;;;;;;;16.83;68.91;98582.80;4197862;84;20992;-86
2022/06/25 01:13:52;;;;;;;8.65;4.50;;;;;;;16.86;69.45;98586.88;4188141;84;21017;-85
2022/06/25 01:19:54;;;;;;;6.15;4.60;;;;;;;16.78;69.38;98589.61;4155772;85;21014;-85
2022/06/25 01:25:56;;;;;;;7.87;4.60;;;;;;;16.67;69.88;98589.04;4151855;85;21496;-85
2022/06/25 01:31:57;;;;;;;8.48;5.22;;;;;;;16.53;70.09;98595.43;4156870;84;21010;-85
2022/06/25 01:37:58;;;;;;;7.72;5.50;;;;;;;16.46;70.60;98590.05;4152455;85;21958;-86
2022/06/25 01:44:00;;;;;;;10.90;4.95;;;;;;;16.41;71.30;98602.94;4205727;83;21408;-86
2022/06/25 01:50:03;;;;;;;9.28;4.92;;;;;;;16.29;71.59;98591.89;4183753;84;21541;-85
2022/06/25 01:56:04;;;;;;;6.85;5.28;;;;;;;16.19;72.11;98608.07;4187495;84;21067;-86
2022/06/25 02:02:06;;;;;;;8.45;5.65;;;;;;;16.15;72.33;98607.34;4157313;84;21987;-85
2022/06/25 02:08:14;;;;;;;4.95;4.28;;;;;;;16.01;72.61;98615.86;4189409;84;21886;-85
2022/06/25 02:14:15;;;;;;;7.60;4.72;;;;;;;15.97;73.09;98619.88;4189593;83;20970;-85
2022/06/25 02:20:17;;;;;;;7.10;4.95;;;;;;;15.81;73.43;98625.26;4187889;84;20986;-85
2022/06/25 02:26:19;;;;;;;9.28;4.70;;;;;;;15.75;74.00;98620.03;4193047;84;21540;-85
2022/06/25 02:32:20;;;;;;;9.48;5.60;;;;;;;15.90;74.18;98637.33;4182682;84;21650;-85
2022/06/25 02:38:22;;;;;;;10.88;5.55;;;;;;;16.05;74.28;98630.41;4143321;83;21560;-86
2022/06/25 02:44:25;;;;;;;10.05;5.55;;;;;;;15.87;74.39;98630.48;4123088;84;94627;-85
2022/06/25 02:50:31;;;;;;;8.13;5.40;;;;;;;15.62;74.67;98635.80;4171040;84;20977;-84
2022/06/25 03:02:54;;;;;;;8.05;5.80;;;;;;;15.24;75.50;98630.19;4171368;84;20957;-84
2022/06/25 03:08:56;;;;;;;9.08;5.47;;;;;;;15.18;76.10;98628.30;4163475;84;21019;-84
2022/06/25 03:14:58;;;;;;;8.65;4.90;;;;;;;15.22;76.36;98639.47;4160412;84;21023;-84
2022/06/25 03:20:59;;;;;;;9.73;5.35;;;;;;;15.17;76.82;98645.46;4169455;84;21035;-85
2022/06/25 03:27:01;;;;;;;6.60;4.08;;;;;;;15.30;77.22;98636.04;4171213;84;21921;-85
2022/06/25 03:33:03;;;;;;;5.15;4.28;;;;;;;15.59;77.64;98638.02;4092014;85;21015;-85
2022/06/25 03:39:16;;;;;;;5.75;4.08;;;;;;;15.79;77.58;98643.62;4011841;87;21699;-85
2022/06/25 03:45:17;;;;;;;8.35;4.30;;;;;;;15.94;77.61;98651.09;4143680;84;21044;-85
2022/06/25 03:51:19;;;;;;;8.03;4.75;;;;;;;16.18;77.62;98656.20;4117373;85;21032;-85
2022/06/25 03:57:20;;;;;;;6.80;4.92;;;;;;;16.29;77.85;98662.33;4035213;87;21144;-85
2022/06/25 04:03:33;;;;;;;7.10;4.20;;;;;;;16.29;77.86;98658.77;4069104;86;21067;-85
2022/06/25 04:09:39;;;;;;;;;;;;;;;16.34;78.13;98665.20;4053759;86;21022;-85
2022/06/25 04:15:41;;;;;;;7.90;4.45;;;;;;;16.44;79.32;98659.55;4054932;86;21002;-85
2022/06/25 04:29:03;;;;;;;6.40;5.45;;;;;;;16.79;79.33;98653.94;4490078;77;22894;-89
2022/06/25 04:35:07;;;;;;;6.83;4.78;;;;;;;16.85;78.46;98665.47;4428788;78;21238;-91
2022/06/25 04:41:10;;;;;;;11.08;5.58;;;;;;;17.01;78.43;98669.70;4400475;78;22251;-87
2022/06/25 04:47:13;;;;;;;5.97;4.72;;;;;;;17.19;78.33;98677.66;4429001;78;21006;-89
2022/06/25 04:53:19;;;;;;;4.80;4.30;;;;;;;17.33;78.47;98684.88;4431572;78;21044;-91
2022/06/25 04:59:21;;;;;;;6.90;4.58;;;;;;;17.47;78.46;98679.86;4438128;78;21048;-92
2022/06/25 05:05:25;;;;;;;7.50;4.78;;;;;;;17.60;78.48;98679.98;4427695;78;21048;-92
2022/06/25 05:11:27;;;;;;;7.58;4.62;;;;;;;17.72;78.14;98679.30;4440475;78;21026;-91
2022/06/25 05:17:29;;;;;;;8.90;4.58;;;;;;;17.80;77.96;98678.73;4427594;78;21057;-92
2022/06/25 05:23:38;;;;;;;5.53;4.20;;;;;;;17.93;77.96;98676.82;4437137;78;21092;-91
2022/06/25 05:29:41;;;;;;;11.48;4.95;;;;;;;18.03;77.73;98675.80;4433310;78;21022;-90
2022/06/25 05:35:42;;;;;;;7.10;4.37;;;;;;;18.15;77.71;98669.56;4405538;78;21033;-92
2022/06/25 05:41:44;;;;;;;7.58;4.15;;;;;;;18.31;77.67;98668.19;4429054;78;21001;-90
2022/06/25 05:47:45;;;;;;;6.97;4.42;;;;;;;18.49;77.68;98675.48;4431905;78;21010;-93
2022/06/25 05:53:47;;;;;;;6.62;4.55;;;;;;;18.72;77.48;98671.70;4433300;78;21061;-92
2022/06/25 05:59:50;;;;;;;8.08;4.17;;;;;;;18.95;76.89;98677.64;4417422;78;21565;-95
2022/06/25 06:05:52;;;;;;;6.97;4.05;;;;;;;19.15;76.51;98674.89;4422052;78;21001;-90
2022/06/25 06:11:55;;;;;;;5.72;3.77;;;;;;;19.36;76.09;98681.23;4427829;78;21048;-94
2022/06/25 06:17:58;;;;;;;5.25;4.20;;;;;;;19.59;75.83;98689.89;4424829;78;21081;-94
2022/06/25 06:24:00;;;;;;;7.33;3.80;;;;;;;19.81;75.57;98688.79;4431376;78;21013;-91
2022/06/25 06:30:03;;;;;;;7.67;3.85;;;;;;;20.09;75.27;98691.31;4401109;78;21029;-93
2022/06/25 06:36:05;;;;;;;4.25;3.50;;;;;;;20.37;74.91;98696.58;4417594;78;21045;-95
2022/06/25 06:42:08;;;;;;;5.47;3.52;;;;;;;20.59;74.13;98697.44;4428565;78;21630;-94
2022/06/25 06:48:11;;;;;;;4.87;3.30;;;;;;;20.78;73.84;98695.75;4390698;78;21147;-92
2022/06/25 06:54:12;;;;;;;4.83;3.30;;;;;;;21.07;73.94;98695.57;4427880;78;21050;-94
2022/06/25 07:00:17;;;;;;;8.98;3.12;;;;;;;21.44;73.00;98691.20;4423721;78;21070;-93
2022/06/25 07:06:19;;;;;;;5.10;3.02;;;;;;;21.87;72.41;98692.39;4430904;78;21021;-91
2022/06/25 07:12:22;;;;;;;6.83;3.05;;;;;;;22.46;71.90;98694.77;4418936;78;21065;-91
2022/06/25 07:18:26;;;;;;;3.77;2.75;;;;;;;23.10;71.30;98689.43;4424753;78;21686;-91
2022/06/25 07:24:27;;;;;;;5.08;3.42;;;;;;;23.94;71.07;98688.38;4428564;78;20986;-90
2022/06/25 07:30:29;;;;;;;5.17;3.20;;;;;;;24.72;69.48;98684.59;4428398;78;21045;-92
2022/06/25 07:36:30;;;;;;;5.87;2.90;;;;;;;25.06;68.21;98679.84;4426463;78;22321;-90
2022/06/25 07:42:32;;;;;;;3.42;2.70;;;;;;;25.16;66.57;98679.27;4423487;78;21005;-91
2022/06/25 07:48:33;;;;;;;8.18;2.37;;;;;;;25.40;65.48;98672.98;4415044;78;21006;-90
2022/06/25 07:54:35;;;;;;;2.80;2.22;;;;;;;25.52;64.98;98651.55;4423499;78;21030;-89
2022/06/25 08:00:38;;;;;;;4.95;2.20;;;;;;;25.86;63.73;98675.45;4423399;78;21026;-91
2022/06/25 08:06:41;;;;;;;2.85;2.25;;;;;;;26.17;62.16;98676.98;4420129;78;21056;-89
2022/06/25 08:12:43;;;;;;;9.88;2.40;;;;;;;26.48;60.83;98674.37;4276803;80;21035;-89
2022/06/25 08:18:45;;;;;;;5.83;2.20;;;;;;;26.47;55.04;98672.84;4238655;83;21202;-90
2022/06/25 08:24:46;;;;;;;5.50;2.70;;;;;;;26.79;56.02;98675.97;4248904;81;21094;-90
2022/06/25 08:30:48;;;;;;;3.80;2.85;;;;;;;27.07;54.33;98677.85;4255093;81;21640;-88
2022/06/25 08:36:50;;;;;;;4.97;2.35;;;;;;;27.30;54.95;98679.66;4274728;81;21066;-91
2022/06/25 08:42:55;;;;;;;6.97;2.35;;;;;;;27.56;52.98;98674.05;4287551;81;21621;-89
2022/06/25 08:48:57;;;;;;;2.98;1.70;;;;;;;27.68;52.87;98684.13;4273565;81;21126;-90
2022/06/25 08:54:59;;;;;;;2.35;1.70;;;;;;;27.83;50.77;98676.97;4284325;81;21090;-90
2022/06/25 09:01:01;;;;;;;3.62;1.80;;;;;;;27.65;45.95;98683.72;4285267;81;21019;-89
2022/06/25 09:07:17;;;;;;;2.47;1.45;;;;;;;27.70;42.22;98671.75;4286423;81;21689;-90
2022/06/25 09:13:24;;;;;;;3.60;1.50;;;;;;;27.71;44.70;98672.50;4276156;81;21076;-88
2022/06/25 09:19:42;;;;;;;3.00;1.92;;;;;;;28.01;44.90;98673.81;4278703;81;21097;-95
2022/06/25 09:25:43;;;;;;;2.50;1.75;;;;;;;28.23;43.71;98676.79;4269352;81;21060;-91
2022/06/25 09:31:45;;;;;;;2.25;1.80;;;;;;;28.53;44.18;98679.45;4272157;81;21341;-90
2022/06/25 09:44:22;;;;;;;2.02;1.60;;;;;;;29.16;42.69;98680.78;4285670;81;21101;-91
2022/06/25 09:50:21;;;;;;;2.17;1.55;;;;;;;29.49;42.72;98680.84;4277595;81;21143;-89
2022/06/25 09:56:30;;;;;;;2.20;1.80;;;;;;;29.79;41.36;98679.11;4345125;80;21049;-90
2022/06/25 10:02:32;;;;;;;2.90;1.37;;;;;;;30.01;40.92;98677.70;4351929;80;22083;-89
2022/06/25 10:08:35;;;;;;;2.77;1.40;;;;;;;30.28;40.51;98671.94;4241142;81;22039;-91
2022/06/25 10:14:39;;;;;;;1.47;1.20;;;;;;;30.28;37.11;98674.13;4257897;81;21054;-90
2022/06/25 10:20:43;;;;;;;3.45;1.57;;;;;;;30.56;38.54;98669.81;4264787;81;22152;-91
2022/06/25 10:26:47;;;;;;;3.45;1.10;;;;;;;30.80;38.16;98655.91;4272576;81;21382;-90
2022/06/25 10:32:52;;;;;;;2.58;1.32;;;;;;;31.24;37.71;98659.16;4265424;81;21043;-91
2022/06/25 10:38:54;;;;;;;3.55;1.55;;;;;;;31.42;36.82;98659.96;4273202;81;21063;-94
2022/06/25 10:45:07;;;;;;;5.92;1.15;;;;;;;31.29;34.46;98652.70;4274126;81;21066;-91
2022/06/25 10:51:15;;;;;;;2.98;1.20;;;;;;;31.48;35.65;98649.41;4255815;81;21067;-91
2022/06/25 10:57:25;;;;;;;2.52;1.30;;;;;;;31.54;33.95;98657.20;4263734;81;21185;-91
2022/06/25 11:03:38;;;;;;;3.37;1.50;;;;;;;31.42;34.75;98647.23;4245303;81;21061;-89
2022/06/25 11:09:44;;;;;;;2.62;1.52;;;;;;;32.02;34.49;98641.78;4272957;81;21059;-90
2022/06/25 11:15:46;;;;;;;4.10;1.42;;;;;;;32.09;33.76;98636.94;4265705;81;22016;-91
2022/06/25 11:21:49;;;;;;;5.35;1.50;;;;;;;32.37;33.40;98636.06;4263816;81;21720;-88
2022/06/25 11:34:21;;;;;;;2.45;1.67;;;;;;;32.72;30.78;98631.64;4240136;81;21127;-88
2022/06/25 11:40:24;;;;;;;4.08;2.05;;;;;;;32.84;31.08;98633.70;4261773;81;22003;-88
2022/06/25 11:46:27;;;;;;;1.40;1.30;;;;;;;33.21;31.45;98624.58;4284684;81;21117;-91
2022/06/25 11:52:29;;;;;;;1.50;1.15;;;;;;;33.60;31.93;98624.02;4283757;81;21043;-89
2022/06/25 11:58:40;;;;;;;1.67;1.35;;;;;;;33.94;31.44;98622.17;4281444;81;21086;-88
2022/06/25 12:05:02;;;;;;;2.55;1.20;;;;;;;33.57;32.05;98626.52;4288987;81;21082;-92
2022/06/25 12:11:04;;;;;;;4.50;1.42;;;;;;;33.32;31.33;98607.41;4259175;81;21589;-94
2022/06/25 12:17:06;;;;;;;2.17;1.50;;;;;;;33.04;30.07;98610.52;4269603;81;22114;-90
2022/06/25 12:23:08;;;;;;;1.35;1.25;;;;;;;32.73;30.58;98603.41;4246898;81;21060;-89
2022/06/25 12:29:19;;;;;;;1.25;1.12;;;;;;;32.42;30.32;98608.97;4264721;81;21102;-92
2022/06/25 12:35:27;;;;;;;2.17;1.52;;;;;;;31.97;30.84;98607.20;4296076;81;21542;-91
2022/06/25 12:41:47;;;;;;;5.20;1.37;;;;;;;31.61;30.67;98605.05;4290632;81;21058;-91
2022/06/25 12:47:48;;;;;;;2.33;1.32;;;;;;;31.54;31.03;98599.95;4280649;81;22263;-90
2022/06/25 12:53:54;;;;;;;3.45;1.90;;;;;;;31.23;31.91;98594.02;4235857;81;21076;-90
2022/06/25 12:59:57;;;;;;;2.50;1.55;;;;;;;30.83;31.78;98591.92;4301863;81;21724;-89
2022/06/25 13:06:00;;;;;;;2.47;1.50;;;;;;;30.83;31.25;98594.75;4340549;80;21062;-89
2022/06/25 13:12:02;;;;;;;2.92;1.60;;;;;;;30.82;30.95;98591.17;4284892;81;21277;-89
2022/06/25 13:18:04;;;;;;;2.12;1.45;;;;;;;30.70;31.16;98585.40;4295487;81;21402;-89
2022/06/25 13:24:06;;;;;;;4.97;2.02;;;;;;;30.50;31.71;98587.94;4293819;81;21093;-88
2022/06/25 13:30:10;;;;;;;2.33;1.50;;;;;;;30.33;31.05;98592.88;4301291;81;21038;-90
2022/06/25 13:36:12;;;;;;;3.00;1.57;;;;;;;30.27;31.94;98587.87;4293685;81;21658;-89
2022/06/25 13:42:13;;;;;;;3.40;1.62;;;;;;;30.21;32.95;98584.30;4294375;81;21584;-91
2022/06/25 13:48:15;;;;;;;2.98;1.72;;;;;;;30.39;32.66;98581.55;4295324;81;21462;-89
2022/06/25 13:54:16;;;;;;;1.75;1.65;;;;;;;30.36;32.66;98580.55;4299481;81;21108;-90
2022/06/25 14:00:17;;;;;;;2.90;1.87;;;;;;;29.99;32.96;98582.16;4304533;81;21972;-89
2022/06/25 14:06:19;;;;;;;1.82;1.62;;;;;;;29.57;33.43;98584.58;4301935;81;21030;-89
2022/06/25 14:12:20;;;;;;;3.37;1.85;;;;;;;29.27;33.64;98576.48;4297492;81;21003;-88
2022/06/25 14:18:22;;;;;;;2.05;1.77;;;;;;;29.16;34.17;98577.14;4297307;81;21021;-91
2022/06/25 14:30:47;;;;;;;1.67;1.47;;;;;;;28.92;34.76;98568.48;4281154;81;21612;-90
2022/06/25 14:43:09;;;;;;;4.58;1.90;;;;;;;28.87;35.20;98570.64;4284180;81;21156;-89
2022/06/25 14:49:14;;;;;;;3.70;1.82;;;;;;;28.79;35.49;98576.64;4285474;81;21050;-89
2022/06/25 14:55:16;;;;;;;5.60;2.40;;;;;;;28.76;36.42;98569.83;4288426;81;21081;-93
2022/06/25 15:01:17;;;;;;;5.70;2.20;;;;;;;28.71;36.40;98570.58;4285649;81;21574;-90
2022/06/25 15:07:19;;;;;;;5.72;3.33;;;;;;;28.62;36.80;98573.63;4281487;81;21222;-91
2022/06/25 15:13:21;;;;;;;7.30;2.37;;;;;;;28.52;37.11;98572.33;4284164;81;21432;-91
2022/06/25 15:19:22;;;;;;;2.58;1.90;;;;;;;28.42;37.53;98573.16;4287648;81;21169;-94
2022/06/25 15:25:23;;;;;;;3.90;1.95;;;;;;;28.35;37.64;98577.06;4293300;81;21105;-91
2022/06/25 15:31:25;;;;;;;5.75;2.45;;;;;;;28.29;37.63;98578.45;4287958;81;21088;-92
2022/06/25 15:37:26;;;;;;;2.42;1.85;;;;;;;28.19;37.78;98573.55;4278386;81;21911;-91
2022/06/25 15:43:27;;;;;;;2.90;1.87;;;;;;;28.10;38.10;98569.51;4278281;81;21441;-91
2022/06/25 15:49:29;;;;;;;2.45;2.00;;;;;;;27.98;38.34;98574.31;4289421;81;21029;-92
2022/06/25 15:55:32;;;;;;;2.58;2.20;;;;;;;27.89;38.42;98571.70;4285176;81;21074;-91
2022/06/25 16:01:33;;;;;;;2.22;2.00;;;;;;;27.76;38.71;98568.52;4282438;81;21018;-91
2022/06/25 16:07:36;;;;;;;5.40;3.30;;;;;;;27.64;38.95;98572.52;4285329;81;21084;-91
2022/06/25 16:13:37;;;;;;;5.80;2.60;;;;;;;27.55;39.27;98574.09;4301361;81;22261;-92
2022/06/25 16:19:39;;;;;;;4.45;2.60;;;;;;;27.54;39.69;98585.22;4281703;81;21055;-91
2022/06/25 16:25:40;;;;;;;2.92;2.37;;;;;;;27.56;40.07;98589.71;4284458;81;21014;-92
2022/06/25 16:31:42;;;;;;;6.08;2.87;;;;;;;27.57;40.67;98589.21;4284045;81;21051;-91
2022/06/25 16:37:45;;;;;;;5.03;2.12;;;;;;;27.55;40.35;98588.15;4275189;81;21062;-90
2022/06/25 16:44:05;;;;;;;3.37;2.50;;;;;;;27.51;40.44;98593.24;4282082;81;21055;-91
2022/06/25 16:50:07;;;;;;;3.60;2.08;;;;;;;27.49;40.36;98594.37;4276641;81;21123;-92
2022/06/25 16:56:09;;;;;;;6.72;2.92;;;;;;;27.42;40.56;98592.02;4280669;81;21584;-91
2022/06/25 17:02:10;;;;;;;4.87;3.12;;;;;;;27.36;40.66;98591.95;4293174;81;21026;-92
2022/06/25 17:08:13;;;;;;;4.47;2.25;;;;;;;27.34;40.61;98594.48;4295070;81;21122;-93
2022/06/25 17:14:14;;;;;;;4.45;2.70;;;;;;;27.35;40.63;98595.27;4302147;81;22522;-91
2022/06/25 17:20:16;;;;;;;5.47;2.40;;;;;;;27.35;40.56;98594.64;4284777;82;21013;-92
2022/06/25 17:26:19;;;;;;;5.90;2.45;;;;;;;27.32;40.61;98597.66;4289997;82;21132;-91
2022/06/25 17:32:21;;;;;;;4.95;2.60;;;;;;;27.26;40.76;98601.06;4283120;81;21062;-93
2022/06/25 17:38:23;;;;;;;5.03;2.70;;;;;;;27.18;40.86;98601.33;4278051;81;21060;-91
2022/06/25 17:44:24;;;;;;;6.55;3.10;;;;;;;27.05;40.94;98605.15;4266791;81;21339;-91
2022/06/25 17:50:27;;;;;;;5.47;3.20;;;;;;;26.87;41.17;98610.47;4247228;81;21047;-89
2022/06/25 17:56:30;;;;;;;6.17;3.62;;;;;;;26.73;41.41;98616.16;4258572;81;21052;-92
2022/06/25 18:02:31;;;;;;;7.42;3.35;;;;;;;26.58;41.72;98619.01;4274858;81;21359;-89
2022/06/25 18:08:33;;;;;;;5.97;3.10;;;;;;;26.42;41.79;98615.35;4164751;81;10000223;-90
2022/06/25 18:14:34;;;;;;;4.45;3.00;;;;;;;26.27;42.06;98617.45;4286065;81;21052;-90
2022/06/25 18:20:36;;;;;;;5.55;3.45;;;;;;;26.07;42.33;98621.64;4283343;81;22069;-90
2022/06/25 18:26:38;;;;;;;3.40;2.90;;;;;;;25.85;42.65;98626.26;4275738;81;21762;-91
2022/06/25 18:32:39;;;;;;;7.47;3.60;;;;;;;25.64;43.01;98640.66;4289742;81;21602;-92
2022/06/25 18:38:41;;;;;;;4.85;3.72;;;;;;;25.33;43.48;98648.17;4267436;81;21410;-90
2022/06/25 18:44:44;;;;;;;6.37;3.92;;;;;;;25.09;44.07;98654.42;4283938;81;21765;-92
2022/06/25 18:50:48;;;;;;;4.62;3.85;;;;;;;24.83;44.63;98666.01;4292280;81;21038;-92
2022/06/25 18:56:50;;;;;;;8.83;4.55;;;;;;;24.45;45.40;98668.72;4287287;81;21062;-92
2022/06/25 19:02:51;;;;;;;7.35;4.75;;;;;;;24.12;46.24;98679.16;4280769;81;21734;-88
2022/06/25 19:08:54;;;;;;;8.45;4.50;;;;;;;23.84;46.96;98690.27;4289220;81;21105;-91
2022/06/25 19:14:56;;;;;;;10.90;5.17;;;;;;;23.68;47.83;98703.97;4274951;82;21208;-89
2022/06/25 19:20:58;;;;;;;10.30;5.75;;;;;;;23.47;48.60;98710.55;4293717;81;21070;-90
2022/06/25 19:27:02;;;;;;;6.22;4.95;;;;;;;23.40;49.25;98722.67;4284353;80;21126;-92
2022/06/25 19:33:05;;;;;;;8.38;4.87;;;;;;;23.37;49.60;98727.16;4288416;80;21594;-90
2022/06/25 19:39:06;;;;;;;7.20;4.83;;;;;;;23.35;49.80;98729.63;4276985;80;21100;-91
2022/06/25 19:45:09;;;;;;;7.83;4.72;;;;;;;23.38;49.92;98732.91;4282704;80;21102;-89
2022/06/25 19:51:11;;;;;;;7.70;5.53;;;;;;;23.38;50.17;98738.50;4272153;80;21080;-90
2022/06/25 19:57:12;;;;;;;8.10;5.08;;;;;;;23.43;50.43;98732.91;4301610;80;21079;-91
2022/06/25 20:03:13;;;;;;;8.43;5.45;;;;;;;23.41;50.72;98729.80;4277735;80;21072;-89
2022/06/25 20:09:15;;;;;;;8.23;4.92;;;;;;;23.38;50.79;98736.32;4261486;80;21351;-92
2022/06/25 20:15:16;;;;;;;7.92;4.75;;;;;;;23.33;51.25;98741.13;4280183;80;21572;-91
2022/06/25 20:21:19;;;;;;;10.58;4.85;;;;;;;23.28;51.46;98734.76;4276990;80;21117;-90
2022/06/25 20:27:21;;;;;;;10.18;6.03;;;;;;;23.19;51.75;98738.31;4281620;80;22016;-91
2022/06/25 20:33:23;;;;;;;26.82;16.40;;;;;;;23.02;52.04;98735.67;4271782;80;21116;-91
2022/06/25 20:39:25;;;;;;;21.82;13.05;;;;;;;22.87;52.49;98736.89;4319942;80;21568;-92
2022/06/25 20:45:28;;;;;;;15.18;8.65;;;;;;;22.74;52.84;98740.42;4262236;81;21042;-91
2022/06/25 20:51:30;;;;;;;10.88;7.65;;;;;;;22.65;53.40;98740.41;4346563;80;21608;-92
2022/06/25 20:57:33;;;;;;;8.83;7.20;;;;;;;22.61;53.65;98747.38;4342306;80;21037;-92
2022/06/25 21:09:54;;;;;;;11.60;8.00;;;;;;;22.43;54.42;98755.05;4345755;80;21098;-90
2022/06/25 21:15:56;;;;;;;9.75;7.58;;;;;;;22.40;54.63;98750.39;4347536;80;21063;-89
2022/06/25 21:21:57;;;;;;;11.25;7.75;;;;;;;22.35;55.49;98753.02;4292288;80;21044;-91
2022/06/25 21:27:59;;;;;;;9.25;6.80;;;;;;;22.26;55.58;98765.50;4346522;80;21068;-89
2022/06/25 21:34:01;;;;;;;11.78;8.05;;;;;;;22.23;56.47;98760.84;4346661;80;21070;-90
2022/06/25 21:40:08;;;;;;;8.43;5.95;;;;;;;22.22;56.72;98755.12;4353636;80;21006;-90
2022/06/25 21:46:10;;;;;;;10.88;6.87;;;;;;;22.06;56.60;98753.34;4288320;81;21094;-90
2022/06/25 21:52:13;;;;;;;13.90;7.60;;;;;;;21.95;57.24;98753.59;4290335;81;21040;-91
2022/06/25 21:58:14;;;;;;;12.82;8.33;;;;;;;21.82;57.48;98756.45;4290484;82;21165;-93
2022/06/25 22:04:15;;;;;;;13.68;9.05;;;;;;;21.70;57.86;98759.47;4288298;81;21054;-90
2022/06/25 22:10:17;;;;;;;12.80;7.12;;;;;;;21.55;58.30;98778.52;4299295;82;21058;-88
2022/06/25 22:16:19;;;;;;;12.95;7.20;;;;;;;21.42;59.30;98792.51;4288599;82;21781;-90
2022/06/25 22:22:20;;;;;;;11.22;7.65;;;;;;;21.43;59.27;98783.55;4294408;81;21026;-89
2022/06/25 22:28:23;;;;;;;10.70;6.75;;;;;;;21.43;59.86;98791.91;4294868;81;21473;-89
2022/06/25 22:34:24;;;;;;;11.08;8.25;;;;;;;21.36;59.87;98790.14;4283440;81;21078;-91
2022/06/25 22:40:26;;;;;;;10.70;8.20;;;;;;;21.27;60.35;98811.55;4280495;81;21760;-88
2022/06/25 22:46:27;;;;;;;13.78;7.60;;;;;;;21.14;60.72;98803.24;4285758;81;21022;-90
2022/06/25 22:52:29;;;;;;;9.03;7.00;;;;;;;20.87;61.35;98801.58;4281655;81;21033;-91
2022/06/25 22:58:31;;;;;;;11.43;7.05;;;;;;;20.66;61.95;98808.42;4284942;81;21664;-88
2022/06/25 23:04:32;;;;;;;7.55;6.42;;;;;;;20.46;62.58;98807.88;4272704;81;21111;-90
2022/06/25 23:10:34;;;;;;;10.85;7.55;;;;;;;20.33;63.27;98815.46;4278978;82;21046;-88
2022/06/25 23:16:35;;;;;;;9.50;7.42;;;;;;;20.34;63.78;98818.40;4285067;81;21789;-91
2022/06/25 23:22:37;;;;;;;9.70;7.35;;;;;;;20.19;64.51;98820.22;4279203;81;21015;-89
2022/06/25 23:28:39;;;;;;;11.18;7.25;;;;;;;19.90;64.83;98825.64;4270778;81;21672;-90
2022/06/25 23:34:45;;;;;;;10.78;7.70;;;;;;;19.58;65.26;98822.38;4283328;81;21078;-89
2022/06/25 23:40:46;;;;;;;10.23;7.00;;;;;;;19.36;65.82;98826.16;4296492;81;22322;-90
2022/06/25 23:46:48;;;;;;;9.00;6.47;;;;;;;19.25;66.16;98827.80;4286306;81;21062;-91
2022/06/25 23:52:49;;;;;;;8.55;5.97;;;;;;;18.91;66.87;98841.38;4283358;81;21569;-93
2022/06/25 23:58:51;;;;;;;9.70;7.45;;;;;;;18.82;67.55;98852.30;4279621;81;21087;-89
